createdAt,value
2023-03-14T00:00:23.837Z,1005.25
2023-03-14T00:00:54.751Z,1005.24
2023-03-14T00:01:25.691Z,1005.22
2023-03-14T00:01:56.889Z,1005.22
2023-03-14T00:02:27.346Z,1005.26
2023-03-14T00:02:58.342Z,1005.30
2023-03-14T00:03:29.289Z,1005.32
2023-03-14T00:04:00.190Z,1005.34
2023-03-14T00:04:31.148Z,1005.34
2023-03-14T00:05:02.066Z,1005.38
2023-03-14T00:05:33.011Z,1005.37
2023-03-14T00:06:03.925Z,1005.39
2023-03-14T00:06:34.832Z,1005.40
2023-03-14T00:07:05.761Z,1005.39
2023-03-14T00:07:36.690Z,1005.39
2023-03-14T00:08:07.604Z,1005.42
2023-03-14T00:08:38.577Z,1005.44
2023-03-14T00:09:09.215Z,1005.42
2023-03-14T00:09:40.136Z,1005.41
2023-03-14T00:10:11.051Z,1005.40
2023-03-14T00:10:42.009Z,1005.45
2023-03-14T00:11:12.939Z,1005.47
2023-03-14T00:11:43.859Z,1005.48
2023-03-14T00:12:14.765Z,1005.50
2023-03-14T00:12:45.712Z,1005.51
2023-03-14T00:13:16.648Z,1005.54
2023-03-14T00:13:47.554Z,1005.57
2023-03-14T00:14:18.478Z,1005.58
2023-03-14T00:14:49.408Z,1005.58
2023-03-14T00:15:20.361Z,1005.58
2023-03-14T00:15:51.319Z,1005.60
2023-03-14T00:16:22.367Z,1005.60
2023-03-14T00:16:52.797Z,1005.61
2023-03-14T00:17:23.679Z,1005.61
2023-03-14T00:17:54.657Z,1005.62
2023-03-14T00:18:25.601Z,1005.67
2023-03-14T00:18:56.580Z,1005.67
2023-03-14T00:19:27.518Z,1005.64
2023-03-14T00:19:58.450Z,1005.65
2023-03-14T00:20:29.395Z,1005.67
2023-03-14T00:21:00.328Z,1005.65
2023-03-14T00:21:31.279Z,1005.64
2023-03-14T00:22:02.164Z,1005.62
2023-03-14T00:22:33.084Z,1005.59
2023-03-14T00:23:04.018Z,1005.56
2023-03-14T00:23:34.923Z,1005.58
2023-03-14T00:24:05.829Z,1005.58
2023-03-14T00:24:36.769Z,1005.57
2023-03-14T00:25:07.661Z,1005.52
2023-03-14T00:25:38.598Z,1005.55
2023-03-14T00:26:09.542Z,1005.53
2023-03-14T00:26:40.441Z,1005.52
2023-03-14T00:27:11.435Z,1005.48
2023-03-14T00:27:42.340Z,1005.50
2023-03-14T00:28:13.227Z,1005.54
2023-03-14T00:28:44.188Z,1005.54
2023-03-14T00:29:15.094Z,1005.57
2023-03-14T00:29:46.025Z,1005.58
2023-03-14T00:30:16.944Z,1005.55
2023-03-14T00:30:47.980Z,1005.53
2023-03-14T00:31:18.473Z,1005.55
2023-03-14T00:31:48.916Z,1005.58
2023-03-14T00:32:19.878Z,1005.55
2023-03-14T00:32:50.398Z,1005.54
2023-03-14T00:33:20.830Z,1005.57
2023-03-14T00:33:51.766Z,1005.58
2023-03-14T00:34:22.693Z,1005.53
2023-03-14T00:34:53.594Z,1005.59
2023-03-14T00:35:24.516Z,1005.48
2023-03-14T00:35:55.500Z,1005.54
2023-03-14T00:36:26.397Z,1005.51
2023-03-14T00:36:57.309Z,1005.51
2023-03-14T00:37:28.230Z,1005.53
2023-03-14T00:37:59.136Z,1005.51
2023-03-14T00:38:30.028Z,1005.51
2023-03-14T00:39:00.965Z,1005.52
2023-03-14T00:39:31.894Z,1005.52
2023-03-14T00:40:02.819Z,1005.53
2023-03-14T00:40:33.742Z,1005.56
2023-03-14T00:41:04.687Z,1005.54
2023-03-14T00:41:35.575Z,1005.56
2023-03-14T00:42:06.494Z,1005.65
2023-03-14T00:42:37.413Z,1005.58
2023-03-14T00:43:08.339Z,1005.63
2023-03-14T00:43:39.289Z,1005.66
2023-03-14T00:44:10.185Z,1005.70
2023-03-14T00:44:41.098Z,1005.65
2023-03-14T00:45:12.019Z,1005.64
2023-03-14T00:45:42.952Z,1005.65
2023-03-14T00:46:14.001Z,1005.69
2023-03-14T00:46:44.511Z,1005.63
2023-03-14T00:47:14.965Z,1005.65
2023-03-14T00:47:45.857Z,1005.69
2023-03-14T00:48:16.779Z,1005.68
2023-03-14T00:48:47.707Z,1005.69
2023-03-14T00:49:18.626Z,1005.78
2023-03-14T00:49:49.546Z,1005.77
2023-03-14T00:50:20.489Z,1005.76
2023-03-14T00:50:51.416Z,1005.82
2023-03-14T00:51:22.393Z,1005.73
2023-03-14T00:51:53.320Z,1005.76
2023-03-14T00:52:24.227Z,1005.75
2023-03-14T00:52:55.142Z,1005.79
2023-03-14T00:53:26.023Z,1005.83
2023-03-14T00:53:56.943Z,1005.82
2023-03-14T00:54:27.858Z,1005.85
2023-03-14T00:54:58.837Z,1005.81
2023-03-14T00:55:29.756Z,1005.83
2023-03-14T00:56:00.688Z,1005.82
2023-03-14T00:56:31.608Z,1005.84
2023-03-14T00:57:02.554Z,1005.84
2023-03-14T00:57:33.484Z,1005.82
2023-03-14T00:58:04.387Z,1005.84
2023-03-14T00:58:35.328Z,1005.86
2023-03-14T00:59:06.234Z,1005.83
2023-03-14T00:59:37.125Z,1005.81
2023-03-14T01:00:08.052Z,1005.75
2023-03-14T01:00:38.968Z,1005.80
2023-03-14T01:01:09.926Z,1005.79
2023-03-14T01:01:40.974Z,1005.85
2023-03-14T01:02:11.443Z,1005.87
2023-03-14T01:02:42.416Z,1005.86
2023-03-14T01:03:13.513Z,1005.83
2023-03-14T01:03:43.968Z,1005.88
2023-03-14T01:04:14.916Z,1005.86
2023-03-14T01:04:45.824Z,1005.87
2023-03-14T01:05:16.734Z,1005.88
2023-03-14T01:05:47.693Z,1005.92
2023-03-14T01:06:18.634Z,1005.89
2023-03-14T01:06:49.576Z,1005.87
2023-03-14T01:07:20.512Z,1005.88
2023-03-14T01:07:51.432Z,1005.89
2023-03-14T01:08:22.367Z,1005.89
2023-03-14T01:08:53.298Z,1005.90
2023-03-14T01:09:24.212Z,1005.93
2023-03-14T01:09:55.108Z,1005.95
2023-03-14T01:10:26.031Z,1005.97
2023-03-14T01:10:56.963Z,1006.01
2023-03-14T01:11:27.872Z,1006.00
2023-03-14T01:11:58.800Z,1005.97
2023-03-14T01:12:29.736Z,1005.97
2023-03-14T01:13:00.647Z,1005.99
2023-03-14T01:13:31.553Z,1005.93
2023-03-14T01:14:02.493Z,1005.93
2023-03-14T01:14:33.415Z,1005.92
2023-03-14T01:15:03.948Z,1005.97
2023-03-14T01:15:34.870Z,1005.98
2023-03-14T01:16:05.795Z,1006.00
2023-03-14T01:16:36.839Z,1005.98
2023-03-14T01:17:07.295Z,1006.05
2023-03-14T01:17:38.192Z,1006.06
2023-03-14T01:18:09.123Z,1006.06
2023-03-14T01:18:40.046Z,1006.08
2023-03-14T01:19:10.951Z,1006.07
2023-03-14T01:19:41.937Z,1006.13
2023-03-14T01:20:12.872Z,1006.05
2023-03-14T01:20:43.796Z,1006.10
2023-03-14T01:21:14.726Z,1006.12
2023-03-14T01:21:45.910Z,1006.10
2023-03-14T01:22:16.337Z,1006.08
2023-03-14T01:22:47.273Z,1006.09
2023-03-14T01:23:18.219Z,1006.07
2023-03-14T01:23:49.129Z,1006.08
2023-03-14T01:24:20.069Z,1006.07
2023-03-14T01:24:50.984Z,1006.05
2023-03-14T01:25:21.919Z,1006.08
2023-03-14T01:25:52.919Z,1006.10
2023-03-14T01:26:23.902Z,1006.08
2023-03-14T01:26:54.944Z,1006.11
2023-03-14T01:27:25.370Z,1006.07
2023-03-14T01:27:56.297Z,1006.06
2023-03-14T01:28:27.190Z,1006.06
2023-03-14T01:28:58.095Z,1006.06
2023-03-14T01:29:29.049Z,1006.03
2023-03-14T01:29:59.957Z,1006.01
2023-03-14T01:30:30.877Z,1006.01
2023-03-14T01:31:01.812Z,1005.99
2023-03-14T01:31:32.811Z,1005.96
2023-03-14T01:32:03.274Z,1005.95
2023-03-14T01:32:34.256Z,1006.04
2023-03-14T01:33:05.190Z,1006.01
2023-03-14T01:33:36.110Z,1006.00
2023-03-14T01:34:07.030Z,1006.03
2023-03-14T01:34:37.948Z,1005.99
2023-03-14T01:35:08.889Z,1005.99
2023-03-14T01:35:39.864Z,1005.95
2023-03-14T01:36:10.839Z,1005.93
2023-03-14T01:36:41.769Z,1005.92
2023-03-14T01:37:12.730Z,1005.92
2023-03-14T01:37:43.658Z,1005.93
2023-03-14T01:38:14.558Z,1005.90
2023-03-14T01:38:45.459Z,1005.90
2023-03-14T01:39:16.392Z,1005.85
2023-03-14T01:39:47.300Z,1005.81
2023-03-14T01:40:18.231Z,1005.76
2023-03-14T01:40:49.172Z,1005.71
2023-03-14T01:41:20.098Z,1005.65
2023-03-14T01:41:51.055Z,1005.59
2023-03-14T01:42:22.003Z,1005.54
2023-03-14T01:42:52.919Z,1005.49
2023-03-14T01:43:23.835Z,1005.47
2023-03-14T01:43:54.769Z,1005.44
2023-03-14T01:44:25.679Z,1005.35
2023-03-14T01:44:56.622Z,1005.29
2023-03-14T01:45:27.562Z,1005.23
2023-03-14T01:45:58.515Z,1005.17
2023-03-14T01:46:29.446Z,1005.09
2023-03-14T01:47:00.356Z,1005.01
2023-03-14T01:47:31.260Z,1004.99
2023-03-14T01:48:02.245Z,1004.95
2023-03-14T01:48:33.162Z,1004.87
2023-03-14T01:49:04.105Z,1004.82
2023-03-14T01:49:34.998Z,1004.75
2023-03-14T01:50:05.906Z,1004.71
2023-03-14T01:50:36.853Z,1004.62
2023-03-14T01:51:07.767Z,1004.54
2023-03-14T01:51:38.693Z,1004.52
2023-03-14T01:52:09.593Z,1004.46
2023-03-14T01:52:40.519Z,1004.43
2023-03-14T01:53:11.475Z,1004.42
2023-03-14T01:53:42.381Z,1004.37
2023-03-14T01:54:13.318Z,1004.35
2023-03-14T01:54:44.369Z,1004.28
2023-03-14T01:55:14.817Z,1004.23
2023-03-14T01:55:45.717Z,1004.17
2023-03-14T01:56:16.641Z,1004.13
2023-03-14T01:56:47.552Z,1004.13
2023-03-14T01:57:18.479Z,1004.10
2023-03-14T01:57:49.398Z,1004.09
2023-03-14T01:58:20.433Z,1004.05
2023-03-14T01:58:50.867Z,1003.98
2023-03-14T01:59:21.773Z,1003.95
2023-03-14T01:59:52.692Z,1003.91
2023-03-14T02:00:23.925Z,1003.90
2023-03-14T02:00:54.442Z,1003.86
2023-03-14T02:01:25.520Z,1003.84
2023-03-14T02:01:55.942Z,1003.80
2023-03-14T02:02:26.865Z,1003.75
2023-03-14T02:02:57.809Z,1003.74
2023-03-14T02:03:28.790Z,1003.72
2023-03-14T02:03:59.691Z,1003.65
2023-03-14T02:04:30.585Z,1003.59
2023-03-14T02:05:01.522Z,1003.57
2023-03-14T02:05:32.484Z,1003.56
2023-03-14T02:06:03.411Z,1003.55
2023-03-14T02:06:34.340Z,1003.53
2023-03-14T02:07:05.269Z,1003.58
2023-03-14T02:07:36.177Z,1003.55
2023-03-14T02:08:07.120Z,1003.50
2023-03-14T02:08:38.036Z,1003.46
2023-03-14T02:09:08.928Z,1003.46
2023-03-14T02:09:39.852Z,1003.49
2023-03-14T02:10:10.775Z,1003.52
2023-03-14T02:10:41.732Z,1003.55
2023-03-14T02:11:13.672Z,1003.59
2023-03-14T02:11:43.558Z,1003.66
2023-03-14T02:12:14.489Z,1003.68
2023-03-14T02:12:45.397Z,1003.66
2023-03-14T02:13:16.316Z,1003.62
2023-03-14T02:13:47.223Z,1003.65
2023-03-14T02:14:18.132Z,1003.73
2023-03-14T02:14:49.221Z,1003.80
2023-03-14T02:15:19.850Z,1003.86
2023-03-14T02:15:50.355Z,1003.88
2023-03-14T02:16:21.324Z,1003.88
2023-03-14T02:16:52.259Z,1003.93
2023-03-14T02:17:23.204Z,1004.02
2023-03-14T02:17:54.173Z,1004.11
2023-03-14T02:18:25.070Z,1004.10
2023-03-14T02:18:56.034Z,1004.08
2023-03-14T02:19:26.940Z,1004.05
2023-03-14T02:19:57.890Z,1004.06
2023-03-14T02:20:28.843Z,1004.11
2023-03-14T02:20:59.751Z,1004.09
2023-03-14T02:21:30.658Z,1004.11
2023-03-14T02:22:02.428Z,1004.13
2023-03-14T02:22:32.342Z,1004.16
2023-03-14T02:23:03.259Z,1004.16
2023-03-14T02:23:34.176Z,1004.17
2023-03-14T02:24:05.099Z,1004.19
2023-03-14T02:24:36.020Z,1004.19
2023-03-14T02:25:06.981Z,1004.19
2023-03-14T02:25:37.874Z,1004.19
2023-03-14T02:26:08.777Z,1004.17
2023-03-14T02:26:39.713Z,1004.16
2023-03-14T02:27:10.627Z,1004.16
2023-03-14T02:27:41.563Z,1004.15
2023-03-14T02:28:12.941Z,1004.11
2023-03-14T02:28:43.367Z,1004.12
2023-03-14T02:29:14.318Z,1004.13
2023-03-14T02:29:45.247Z,1004.11
2023-03-14T02:30:16.137Z,1004.14
2023-03-14T02:30:47.057Z,1004.14
2023-03-14T02:31:18.072Z,1004.15
2023-03-14T02:31:48.548Z,1004.14
2023-03-14T02:32:19.467Z,1004.16
2023-03-14T02:32:50.540Z,1004.16
2023-03-14T02:33:21.005Z,1004.18
2023-03-14T02:33:51.935Z,1004.19
2023-03-14T02:34:22.864Z,1004.18
2023-03-14T02:34:53.770Z,1004.16
2023-03-14T02:35:24.693Z,1004.18
2023-03-14T02:35:55.690Z,1004.20
2023-03-14T02:36:26.124Z,1004.20
2023-03-14T02:36:57.046Z,1004.21
2023-03-14T02:37:28.002Z,1004.22
2023-03-14T02:37:58.895Z,1004.17
2023-03-14T02:38:29.807Z,1004.18
2023-03-14T02:39:00.744Z,1004.18
2023-03-14T02:39:31.697Z,1004.17
2023-03-14T02:40:02.630Z,1004.18
2023-03-14T02:40:33.554Z,1004.19
2023-03-14T02:41:04.493Z,1004.19
2023-03-14T02:41:35.422Z,1004.17
2023-03-14T02:42:06.332Z,1004.20
2023-03-14T02:42:37.236Z,1004.20
2023-03-14T02:43:08.170Z,1004.17
2023-03-14T02:43:39.094Z,1004.18
2023-03-14T02:44:10.060Z,1004.23
2023-03-14T02:44:40.960Z,1004.17
2023-03-14T02:45:11.882Z,1004.18
2023-03-14T02:45:42.856Z,1004.18
2023-03-14T02:46:13.864Z,1004.18
2023-03-14T02:46:44.337Z,1004.16
2023-03-14T02:47:15.268Z,1004.13
2023-03-14T02:47:46.189Z,1004.15
2023-03-14T02:48:17.102Z,1004.15
2023-03-14T02:48:48.094Z,1004.14
2023-03-14T02:49:18.994Z,1004.19
2023-03-14T02:49:49.946Z,1004.10
2023-03-14T02:50:20.868Z,1004.12
2023-03-14T02:50:51.778Z,1004.10
2023-03-14T02:51:22.718Z,1004.10
2023-03-14T02:51:53.613Z,1004.11
2023-03-14T02:52:24.538Z,1004.09
2023-03-14T02:52:55.488Z,1004.04
2023-03-14T02:53:26.377Z,1004.08
2023-03-14T02:53:57.315Z,1004.06
2023-03-14T02:54:28.221Z,1004.01
2023-03-14T02:54:59.160Z,1004.05
2023-03-14T02:55:30.097Z,1004.05
2023-03-14T02:56:01.033Z,1004.03
2023-03-14T02:56:31.960Z,1004.03
2023-03-14T02:57:02.885Z,1004.03
2023-03-14T02:57:33.781Z,1003.99
2023-03-14T02:58:04.702Z,1004.01
2023-03-14T02:58:35.626Z,1004.01
2023-03-14T02:59:06.540Z,1004.00
2023-03-14T02:59:37.447Z,1004.00
2023-03-14T03:00:08.389Z,1004.01
2023-03-14T03:00:39.304Z,1003.92
2023-03-14T03:01:10.256Z,1003.91
2023-03-14T03:01:41.267Z,1003.92
2023-03-14T03:02:11.727Z,1003.89
2023-03-14T03:02:42.638Z,1003.87
2023-03-14T03:03:13.698Z,1003.84
2023-03-14T03:03:44.161Z,1003.86
2023-03-14T03:04:15.115Z,1003.79
2023-03-14T03:04:46.030Z,1003.83
2023-03-14T03:05:16.994Z,1003.83
2023-03-14T03:05:47.900Z,1003.81
2023-03-14T03:06:18.809Z,1003.82
2023-03-14T03:06:49.703Z,1003.82
2023-03-14T03:07:20.616Z,1003.80
2023-03-14T03:07:51.539Z,1003.81
2023-03-14T03:08:22.432Z,1003.82
2023-03-14T03:08:53.326Z,1003.81
2023-03-14T03:09:24.239Z,1003.79
2023-03-14T03:09:55.176Z,1003.79
2023-03-14T03:10:26.105Z,1003.79
2023-03-14T03:10:57.037Z,1003.81
2023-03-14T03:11:27.958Z,1003.79
2023-03-14T03:11:58.851Z,1003.79
2023-03-14T03:12:29.794Z,1003.79
2023-03-14T03:13:00.722Z,1003.83
2023-03-14T03:13:31.672Z,1003.84
2023-03-14T03:14:03.448Z,1003.83
2023-03-14T03:14:33.361Z,1003.82
2023-03-14T03:15:04.290Z,1003.85
2023-03-14T03:15:35.191Z,1003.84
2023-03-14T03:16:06.159Z,1003.84
2023-03-14T03:16:37.154Z,1003.81
2023-03-14T03:17:08.010Z,1003.83
2023-03-14T03:17:38.493Z,1003.79
2023-03-14T03:18:09.450Z,1003.79
2023-03-14T03:18:40.376Z,1003.77
2023-03-14T03:19:11.328Z,1003.81
2023-03-14T03:19:42.267Z,1003.76
2023-03-14T03:20:13.192Z,1003.80
2023-03-14T03:20:44.295Z,1003.77
2023-03-14T03:21:14.755Z,1003.80
2023-03-14T03:21:45.338Z,1003.80
2023-03-14T03:22:16.270Z,1003.78
2023-03-14T03:22:47.189Z,1003.76
2023-03-14T03:23:18.081Z,1003.76
2023-03-14T03:23:49.005Z,1003.77
2023-03-14T03:24:19.922Z,1003.75
2023-03-14T03:24:50.829Z,1003.72
2023-03-14T03:25:21.760Z,1003.72
2023-03-14T03:25:52.715Z,1003.71
2023-03-14T03:26:23.601Z,1003.71
2023-03-14T03:26:54.600Z,1003.74
2023-03-14T03:27:25.519Z,1003.73
2023-03-14T03:27:56.453Z,1003.71
2023-03-14T03:28:27.392Z,1003.72
2023-03-14T03:28:58.315Z,1003.69
2023-03-14T03:29:29.261Z,1003.69
2023-03-14T03:30:00.189Z,1003.68
2023-03-14T03:30:31.093Z,1003.61
2023-03-14T03:31:02.040Z,1003.63
2023-03-14T03:31:33.050Z,1003.60
2023-03-14T03:32:03.474Z,1003.63
2023-03-14T03:32:34.432Z,1003.61
2023-03-14T03:33:05.336Z,1003.60
2023-03-14T03:33:36.310Z,1003.68
2023-03-14T03:34:07.204Z,1003.63
2023-03-14T03:34:38.122Z,1003.60
2023-03-14T03:35:09.054Z,1003.62
2023-03-14T03:35:39.991Z,1003.61
2023-03-14T03:36:11.031Z,1003.56
2023-03-14T03:36:41.514Z,1003.62
2023-03-14T03:37:12.434Z,1003.56
2023-03-14T03:37:43.346Z,1003.62
2023-03-14T03:38:14.261Z,1003.61
2023-03-14T03:38:45.253Z,1003.61
2023-03-14T03:39:16.150Z,1003.59
2023-03-14T03:39:47.043Z,1003.61
2023-03-14T03:40:18.043Z,1003.61
2023-03-14T03:40:48.951Z,1003.57
2023-03-14T03:41:19.869Z,1003.57
2023-03-14T03:41:50.793Z,1003.56
2023-03-14T03:42:21.733Z,1003.52
2023-03-14T03:42:52.655Z,1003.56
2023-03-14T03:43:23.578Z,1003.53
2023-03-14T03:43:54.536Z,1003.52
2023-03-14T03:44:25.458Z,1003.50
2023-03-14T03:44:56.393Z,1003.52
2023-03-14T03:45:27.336Z,1003.48
2023-03-14T03:45:58.285Z,1003.52
2023-03-14T03:46:29.270Z,1003.47
2023-03-14T03:47:00.173Z,1003.47
2023-03-14T03:47:31.096Z,1003.47
2023-03-14T03:48:02.064Z,1003.47
2023-03-14T03:48:32.991Z,1003.43
2023-03-14T03:49:03.905Z,1003.45
2023-03-14T03:49:34.850Z,1003.46
2023-03-14T03:50:05.781Z,1003.46
2023-03-14T03:50:36.726Z,1003.44
2023-03-14T03:51:07.635Z,1003.45
2023-03-14T03:51:38.619Z,1003.51
2023-03-14T03:52:09.516Z,1003.42
2023-03-14T03:52:40.453Z,1003.43
2023-03-14T03:53:13.684Z,1003.44
2023-03-14T03:53:42.198Z,1003.45
2023-03-14T03:54:13.107Z,1003.45
2023-03-14T03:54:44.037Z,1003.52
2023-03-14T03:55:14.980Z,1003.47
2023-03-14T03:55:45.904Z,1003.49
2023-03-14T03:56:16.829Z,1003.48
2023-03-14T03:56:47.739Z,1003.49
2023-03-14T03:57:18.754Z,1003.51
2023-03-14T03:57:49.177Z,1003.47
2023-03-14T03:58:20.122Z,1003.45
2023-03-14T03:58:51.062Z,1003.50
2023-03-14T03:59:21.961Z,1003.52
2023-03-14T03:59:52.901Z,1003.56
2023-03-14T04:00:23.807Z,1003.53
2023-03-14T04:00:54.723Z,1003.52
2023-03-14T04:01:25.667Z,1003.50
2023-03-14T04:01:56.273Z,1003.52
2023-03-14T04:02:26.912Z,1003.52
2023-03-14T04:02:57.610Z,1003.49
2023-03-14T04:03:28.308Z,1003.53
2023-03-14T04:03:58.924Z,1003.52
2023-03-14T04:04:29.398Z,1003.55
2023-03-14T04:04:59.961Z,1003.54
2023-03-14T04:05:30.555Z,1003.55
2023-03-14T04:06:01.486Z,1003.53
2023-03-14T04:06:32.473Z,1003.55
2023-03-14T04:07:03.145Z,1003.50
2023-03-14T04:07:34.057Z,1003.47
2023-03-14T04:08:04.975Z,1003.52
2023-03-14T04:08:35.874Z,1003.53
2023-03-14T04:09:06.841Z,1003.55
2023-03-14T04:09:37.792Z,1003.55
2023-03-14T04:10:08.701Z,1003.57
2023-03-14T04:10:39.659Z,1003.58
2023-03-14T04:11:10.567Z,1003.57
2023-03-14T04:11:41.510Z,1003.51
2023-03-14T04:12:12.427Z,1003.55
2023-03-14T04:12:44.364Z,1003.57
2023-03-14T04:13:14.264Z,1003.55
2023-03-14T04:13:45.190Z,1003.54
2023-03-14T04:14:15.854Z,1003.54
2023-03-14T04:14:46.785Z,1003.56
2023-03-14T04:15:17.702Z,1003.54
2023-03-14T04:15:48.659Z,1003.52
2023-03-14T04:16:19.717Z,1003.53
2023-03-14T04:16:50.140Z,1003.51
2023-03-14T04:17:21.746Z,1003.54
2023-03-14T04:17:51.596Z,1003.57
2023-03-14T04:18:22.556Z,1003.58
2023-03-14T04:18:53.473Z,1003.59
2023-03-14T04:19:24.402Z,1003.61
2023-03-14T04:19:55.339Z,1003.56
2023-03-14T04:20:26.286Z,1003.63
2023-03-14T04:20:57.205Z,1003.66
2023-03-14T04:21:28.123Z,1003.63
2023-03-14T04:21:59.055Z,1003.69
2023-03-14T04:22:30.161Z,1003.62
2023-03-14T04:23:00.547Z,1003.57
2023-03-14T04:23:31.488Z,1003.56
2023-03-14T04:24:02.410Z,1003.58
2023-03-14T04:24:33.333Z,1003.55
2023-03-14T04:25:04.287Z,1003.52
2023-03-14T04:25:35.222Z,1003.47
2023-03-14T04:26:06.133Z,1003.49
2023-03-14T04:26:37.090Z,1003.46
2023-03-14T04:27:07.992Z,1003.43
2023-03-14T04:27:38.898Z,1003.40
2023-03-14T04:28:09.804Z,1003.40
2023-03-14T04:28:40.741Z,1003.40
2023-03-14T04:29:13.307Z,1003.34
2023-03-14T04:29:42.363Z,1003.37
2023-03-14T04:30:13.274Z,1003.37
2023-03-14T04:30:44.207Z,1003.36
2023-03-14T04:31:15.167Z,1003.35
2023-03-14T04:31:46.106Z,1003.40
2023-03-14T04:32:17.081Z,1003.38
2023-03-14T04:32:48.026Z,1003.37
2023-03-14T04:33:18.943Z,1003.36
2023-03-14T04:33:49.882Z,1003.35
2023-03-14T04:34:20.796Z,1003.36
2023-03-14T04:34:51.711Z,1003.29
2023-03-14T04:35:22.666Z,1003.28
2023-03-14T04:35:53.626Z,1003.25
2023-03-14T04:36:24.551Z,1003.26
2023-03-14T04:36:55.472Z,1003.20
2023-03-14T04:37:26.417Z,1003.18
2023-03-14T04:37:57.372Z,1003.18
2023-03-14T04:38:28.267Z,1003.19
2023-03-14T04:38:59.206Z,1003.15
2023-03-14T04:39:30.128Z,1003.15
2023-03-14T04:40:01.084Z,1003.15
2023-03-14T04:40:31.975Z,1003.17
2023-03-14T04:41:02.906Z,1003.21
2023-03-14T04:41:33.802Z,1003.24
2023-03-14T04:42:04.799Z,1003.22
2023-03-14T04:42:35.709Z,1003.22
2023-03-14T04:43:06.652Z,1003.18
2023-03-14T04:43:37.544Z,1003.25
2023-03-14T04:44:08.478Z,1003.19
2023-03-14T04:44:39.384Z,1003.22
2023-03-14T04:45:10.339Z,1003.23
2023-03-14T04:45:41.257Z,1003.27
2023-03-14T04:46:12.207Z,1003.26
2023-03-14T04:46:43.169Z,1003.25
2023-03-14T04:47:14.114Z,1003.27
2023-03-14T04:47:45.012Z,1003.25
2023-03-14T04:48:15.949Z,1003.27
2023-03-14T04:48:46.906Z,1003.26
2023-03-14T04:49:17.801Z,1003.26
2023-03-14T04:49:48.740Z,1003.23
2023-03-14T04:50:19.649Z,1003.26
2023-03-14T04:50:50.562Z,1003.21
2023-03-14T04:51:21.482Z,1003.19
2023-03-14T04:51:52.437Z,1003.15
2023-03-14T04:52:23.326Z,1003.13
2023-03-14T04:52:54.308Z,1003.12
2023-03-14T04:53:25.275Z,1003.14
2023-03-14T04:53:56.199Z,1003.08
2023-03-14T04:54:27.109Z,1003.11
2023-03-14T04:54:58.071Z,1003.11
2023-03-14T04:55:28.989Z,1003.06
2023-03-14T04:55:59.923Z,1003.02
2023-03-14T04:56:30.849Z,1003.05
2023-03-14T04:57:01.807Z,1003.01
2023-03-14T04:57:32.744Z,1003.00
2023-03-14T04:58:03.662Z,1002.93
2023-03-14T04:58:34.631Z,1002.98
2023-03-14T04:59:05.569Z,1002.95
2023-03-14T04:59:36.505Z,1002.90
2023-03-14T05:00:07.435Z,1002.93
2023-03-14T05:00:39.826Z,1002.93
2023-03-14T05:01:09.321Z,1002.89
2023-03-14T05:01:40.309Z,1002.93
2023-03-14T05:02:11.341Z,1002.96
2023-03-14T05:02:41.821Z,1002.95
2023-03-14T05:03:12.365Z,1002.96
2023-03-14T05:03:42.840Z,1002.95
2023-03-14T05:04:13.777Z,1002.92
2023-03-14T05:04:44.733Z,1002.92
2023-03-14T05:05:15.637Z,1002.90
2023-03-14T05:05:46.600Z,1002.89
2023-03-14T05:06:17.522Z,1002.88
2023-03-14T05:06:48.461Z,1002.86
2023-03-14T05:07:19.399Z,1002.85
2023-03-14T05:07:50.362Z,1002.85
2023-03-14T05:08:21.251Z,1002.80
2023-03-14T05:08:52.226Z,1002.83
2023-03-14T05:09:23.166Z,1002.75
2023-03-14T05:09:54.080Z,1002.82
2023-03-14T05:10:24.981Z,1002.84
2023-03-14T05:10:55.921Z,1002.86
2023-03-14T05:11:26.822Z,1002.88
2023-03-14T05:11:57.720Z,1002.75
2023-03-14T05:12:28.654Z,1002.88
2023-03-14T05:12:59.644Z,1002.87
2023-03-14T05:13:30.521Z,1002.86
2023-03-14T05:14:01.445Z,1002.88
2023-03-14T05:14:32.366Z,1002.92
2023-03-14T05:15:03.297Z,1002.88
2023-03-14T05:15:34.136Z,1002.88
2023-03-14T05:16:05.127Z,1002.85
2023-03-14T05:16:36.185Z,1002.86
2023-03-14T05:17:06.566Z,1002.87
2023-03-14T05:17:37.427Z,1002.90
2023-03-14T05:18:08.321Z,1002.95
2023-03-14T05:18:39.186Z,1002.95
2023-03-14T05:19:10.022Z,1002.91
2023-03-14T05:19:40.920Z,1002.87
2023-03-14T05:20:11.814Z,1002.84
2023-03-14T05:20:42.750Z,1002.83
2023-03-14T05:21:13.699Z,1002.83
2023-03-14T05:21:44.616Z,1002.84
2023-03-14T05:22:15.454Z,1002.83
2023-03-14T05:22:46.319Z,1002.85
2023-03-14T05:23:17.190Z,1002.82
2023-03-14T05:23:48.051Z,1002.81
2023-03-14T05:24:18.923Z,1002.79
2023-03-14T05:24:49.780Z,1002.80
2023-03-14T05:25:20.716Z,1002.80
2023-03-14T05:25:51.608Z,1002.77
2023-03-14T05:26:22.502Z,1002.80
2023-03-14T05:26:53.469Z,1002.73
2023-03-14T05:27:24.289Z,1002.76
2023-03-14T05:27:55.153Z,1002.71
2023-03-14T05:28:26.033Z,1002.68
2023-03-14T05:28:56.892Z,1002.74
2023-03-14T05:29:27.800Z,1002.74
2023-03-14T05:29:58.685Z,1002.75
2023-03-14T05:30:29.540Z,1002.76
2023-03-14T05:31:00.567Z,1002.72
2023-03-14T05:31:30.984Z,1002.76
2023-03-14T05:32:01.820Z,1002.76
2023-03-14T05:32:32.747Z,1002.76
2023-03-14T05:33:03.696Z,1002.72
2023-03-14T05:33:34.093Z,1002.75
2023-03-14T05:34:04.965Z,1002.69
2023-03-14T05:34:35.858Z,1002.66
2023-03-14T05:35:06.713Z,1002.66
2023-03-14T05:35:37.631Z,1002.71
2023-03-14T05:36:08.572Z,1002.67
2023-03-14T05:36:39.491Z,1002.68
2023-03-14T05:37:10.418Z,1002.68
2023-03-14T05:37:41.416Z,1002.69
2023-03-14T05:38:12.508Z,1002.65
2023-03-14T05:38:44.122Z,1002.66
2023-03-14T05:39:13.894Z,1002.68
2023-03-14T05:39:45.860Z,1002.66
2023-03-14T05:40:15.747Z,1002.66
2023-03-14T05:40:47.633Z,1002.67
2023-03-14T05:41:17.511Z,1002.62
2023-03-14T05:41:48.390Z,1002.64
2023-03-14T05:42:19.253Z,1002.63
2023-03-14T05:42:50.111Z,1002.58
2023-03-14T05:43:21.008Z,1002.58
2023-03-14T05:43:52.039Z,1002.61
2023-03-14T05:44:22.504Z,1002.57
2023-03-14T05:44:53.366Z,1002.56
2023-03-14T05:45:24.233Z,1002.61
2023-03-14T05:45:55.108Z,1002.60
2023-03-14T05:46:26.037Z,1002.57
2023-03-14T05:46:56.937Z,1002.55
2023-03-14T05:47:27.780Z,1002.55
2023-03-14T05:47:58.660Z,1002.58
2023-03-14T05:48:29.546Z,1002.58
2023-03-14T05:49:00.425Z,1002.55
2023-03-14T05:49:31.277Z,1002.57
2023-03-14T05:50:02.283Z,1002.59
2023-03-14T05:50:33.498Z,1002.51
2023-03-14T05:51:03.429Z,1002.51
2023-03-14T05:51:34.289Z,1002.46
2023-03-14T05:52:05.183Z,1002.50
2023-03-14T05:52:36.055Z,1002.45
2023-03-14T05:53:06.994Z,1002.45
2023-03-14T05:53:37.895Z,1002.44
2023-03-14T05:54:08.749Z,1002.44
2023-03-14T05:54:39.595Z,1002.45
2023-03-14T05:55:10.490Z,1002.47
2023-03-14T05:55:41.347Z,1002.48
2023-03-14T05:56:12.240Z,1002.48
2023-03-14T05:56:43.169Z,1002.46
2023-03-14T05:57:14.019Z,1002.44
2023-03-14T05:57:44.936Z,1002.44
2023-03-14T05:58:15.817Z,1002.40
2023-03-14T05:58:46.699Z,1002.42
2023-03-14T05:59:17.617Z,1002.44
2023-03-14T05:59:48.478Z,1002.43
2023-03-14T06:00:19.327Z,1002.41
2023-03-14T06:00:50.224Z,1002.38
2023-03-14T06:01:21.098Z,1002.42
2023-03-14T06:01:52.025Z,1002.38
2023-03-14T06:02:23.029Z,1002.34
2023-03-14T06:02:53.985Z,1002.37
2023-03-14T06:03:24.913Z,1002.34
2023-03-14T06:03:55.749Z,1002.37
2023-03-14T06:04:26.654Z,1002.34
2023-03-14T06:04:57.500Z,1002.37
2023-03-14T06:05:28.369Z,1002.40
2023-03-14T06:05:59.246Z,1002.39
2023-03-14T06:06:30.114Z,1002.40
2023-03-14T06:07:00.981Z,1002.35
2023-03-14T06:07:31.834Z,1002.39
2023-03-14T06:08:02.703Z,1002.36
2023-03-14T06:08:33.596Z,1002.37
2023-03-14T06:09:04.485Z,1002.31
2023-03-14T06:09:35.337Z,1002.30
2023-03-14T06:10:06.183Z,1002.30
2023-03-14T06:10:37.086Z,1002.26
2023-03-14T06:11:07.954Z,1002.26
2023-03-14T06:11:38.823Z,1002.23
2023-03-14T06:12:09.775Z,1002.22
2023-03-14T06:12:40.644Z,1002.19
2023-03-14T06:13:11.501Z,1002.22
2023-03-14T06:13:42.359Z,1002.19